Time;durP1;ratioP1;P1;durP2;ratioP2;P2;SDS_P1;SDS_P2;PMS_P1;PMS_P2;Temp;Humidity;BMP_temperature;BMP_pressure;BME280_temperature;BME280_humidity;BME280_pressure;Samples;Min_cycle;Max_cycle;Signal;HPM_P1;HPM_P2
2024/01/15 00:00:14;;;;;;;18.75;11.30;;;2.30;99.90;;;;;;2103176;28;20029;-72
2024/01/15 00:01:14;;;;;;;20.50;11.65;;;2.30;99.90;;;;;;2106514;28;20024;-72
2024/01/15 00:02:15;;;;;;;23.08;12.32;;;2.30;99.90;;;;;;2093968;28;20580;-72
2024/01/15 00:03:15;;;;;;;22.48;12.05;;;2.30;99.90;;;;;;2087053;28;20079;-72
2024/01/15 00:04:16;;;;;;;22.05;11.75;;;2.30;99.90;;;;;;2096938;28;20028;-72
2024/01/15 00:05:16;;;;;;;22.30;11.98;;;2.30;99.90;;;;;;2104407;28;20029;-72
2024/01/15 00:06:17;;;;;;;20.55;11.48;;;2.30;99.90;;;;;;2104305;28;20032;-72
2024/01/15 00:07:17;;;;;;;20.42;11.40;;;2.30;99.90;;;;;;2108263;28;20024;-72
2024/01/15 00:08:18;;;;;;;19.77;11.27;;;2.30;99.90;;;;;;2107206;28;20128;-72
2024/01/15 00:09:18;;;;;;;20.98;11.88;;;2.30;99.90;;;;;;2103542;28;20450;-71
2024/01/15 00:10:19;;;;;;;22.52;11.88;;;2.30;99.90;;;;;;2107131;28;20032;-72
2024/01/15 00:11:20;;;;;;;21.85;12.52;;;2.30;99.90;;;;;;2093910;28;20524;-72
2024/01/15 00:12:20;;;;;;;20.33;11.77;;;2.30;99.90;;;;;;2105136;28;20031;-72
2024/01/15 00:13:21;;;;;;;23.33;12.40;;;2.30;99.90;;;;;;2103326;28;20064;-72
2024/01/15 00:14:22;;;;;;;22.50;12.52;;;2.30;99.90;;;;;;2102745;28;20036;-72
2024/01/15 00:15:22;;;;;;;21.45;12.45;;;2.30;99.90;;;;;;2102395;28;20084;-72
2024/01/15 00:16:23;;;;;;;20.98;11.65;;;2.30;99.90;;;;;;2107124;28;20196;-72
2024/01/15 00:17:23;;;;;;;20.58;11.88;;;2.30;99.90;;;;;;2104917;28;20028;-72
2024/01/15 00:18:24;;;;;;;21.25;11.75;;;2.20;99.90;;;;;;2095913;28;20054;-72
2024/01/15 00:19:25;;;;;;;21.90;12.27;;;2.20;99.90;;;;;;2093425;28;20020;-71
2024/01/15 00:20:25;;;;;;;23.08;12.70;;;2.20;99.90;;;;;;2103568;28;20042;-72
2024/01/15 00:21:27;;;;;;;22.00;12.70;;;2.20;99.90;;;;;;2103120;28;20034;-72
2024/01/15 00:22:28;;;;;;;22.58;12.38;;;2.20;99.90;;;;;;2106987;28;20430;-71
2024/01/15 00:23:28;;;;;;;24.45;12.57;;;2.20;99.90;;;;;;2104749;28;20031;-71
2024/01/15 00:24:29;;;;;;;22.55;12.07;;;2.20;99.90;;;;;;2103828;28;20421;-72
2024/01/15 00:25:29;;;;;;;20.38;11.60;;;2.20;99.90;;;;;;2107930;28;20125;-72
2024/01/15 00:26:30;;;;;;;21.48;12.45;;;2.20;99.90;;;;;;2109013;28;20027;-72
2024/01/15 00:27:31;;;;;;;20.17;11.93;;;2.20;99.90;;;;;;2108022;28;20057;-72
2024/01/15 00:28:31;;;;;;;22.27;12.50;;;2.20;99.90;;;;;;2104181;28;20032;-71
2024/01/15 00:29:32;;;;;;;22.70;12.20;;;2.20;99.90;;;;;;2104806;28;20028;-71
2024/01/15 00:30:32;;;;;;;22.90;12.45;;;2.20;99.90;;;;;;2105147;28;20059;-72
2024/01/15 00:31:33;;;;;;;23.10;12.80;;;2.20;99.90;;;;;;2095735;28;20616;-71
2024/01/15 00:32:34;;;;;;;21.17;11.90;;;2.20;99.90;;;;;;2094464;28;20109;-71
2024/01/15 00:33:35;;;;;;;21.13;12.23;;;2.20;99.90;;;;;;2101083;28;20109;-71
2024/01/15 00:34:35;;;;;;;20.90;11.90;;;2.20;99.90;;;;;;2093687;28;20032;-71
2024/01/15 00:35:36;;;;;;;23.70;12.90;;;2.20;99.90;;;;;;2095061;28;20059;-72
2024/01/15 00:36:36;;;;;;;21.15;12.32;;;2.20;99.90;;;;;;2093367;28;20059;-73
2024/01/15 00:37:37;;;;;;;20.92;12.18;;;2.20;99.90;;;;;;2098307;28;20024;-73
2024/01/15 00:38:37;;;;;;;20.70;11.80;;;2.20;99.90;;;;;;2106209;28;20038;-73
2024/01/15 00:39:38;;;;;;;21.63;11.88;;;2.20;99.90;;;;;;2093675;28;20032;-71
2024/01/15 00:40:38;;;;;;;22.17;12.10;;;2.20;99.90;;;;;;2094635;28;20064;-72
2024/01/15 00:41:39;;;;;;;20.95;12.38;;;2.20;99.90;;;;;;2106534;28;20023;-71
2024/01/15 00:42:39;;;;;;;20.65;11.93;;;2.20;99.90;;;;;;2093762;28;20059;-72
2024/01/15 00:43:40;;;;;;;21.58;12.63;;;2.20;99.90;;;;;;2096929;28;20082;-72
2024/01/15 00:44:42;;;;;;;20.83;11.98;;;2.20;99.90;;;;;;2105559;28;20342;-72
2024/01/15 00:45:42;;;;;;;23.73;12.27;;;2.20;99.90;;;;;;2105166;28;20051;-72
2024/01/15 00:46:45;;;;;;;23.55;13.18;;;2.20;99.90;;;;;;2094293;28;20028;-71
2024/01/15 00:47:46;;;;;;;21.65;12.25;;;2.20;99.90;;;;;;2098226;28;20119;-71
2024/01/15 00:48:47;;;;;;;23.65;12.52;;;2.20;99.90;;;;;;2102084;28;20035;-71
2024/01/15 00:49:47;;;;;;;20.15;12.13;;;2.20;99.90;;;;;;2101755;27;20036;-71
2024/01/15 00:50:48;;;;;;;22.33;12.50;;;2.20;99.90;;;;;;2098338;28;20051;-72
2024/01/15 00:51:48;;;;;;;20.85;12.13;;;2.20;99.90;;;;;;2102552;28;20055;-71
2024/01/15 00:52:49;;;;;;;22.10;12.57;;;2.20;99.90;;;;;;2097263;28;20050;-72
2024/01/15 00:53:49;;;;;;;23.13;12.90;;;2.20;99.90;;;;;;2103807;28;20032;-72
2024/01/15 00:54:50;;;;;;;23.02;13.15;;;2.20;99.90;;;;;;2093480;28;20725;-72
2024/01/15 00:55:50;;;;;;;22.23;12.63;;;2.20;99.90;;;;;;2096171;28;20077;-71
2024/01/15 00:56:51;;;;;;;25.67;13.52;;;2.20;99.90;;;;;;2093441;28;20040;-72
2024/01/15 00:57:51;;;;;;;23.30;13.23;;;2.10;99.90;;;;;;2104358;28;20098;-72
2024/01/15 00:58:52;;;;;;;21.05;12.82;;;2.10;99.90;;;;;;2095875;28;20067;-72
2024/01/15 00:59:52;;;;;;;22.25;13.02;;;2.20;99.90;;;;;;2101176;28;20099;-72
2024/01/15 01:00:53;;;;;;;24.60;13.23;;;2.20;99.90;;;;;;2105153;28;20039;-72
2024/01/15 01:01:53;;;;;;;25.33;13.48;;;2.20;99.90;;;;;;2101327;28;20475;-72
2024/01/15 01:02:54;;;;;;;22.42;12.77;;;2.10;99.90;;;;;;2095743;28;20048;-72
2024/01/15 01:03:55;;;;;;;23.02;12.73;;;2.10;99.90;;;;;;2098918;28;20028;-72
2024/01/15 01:04:55;;;;;;;23.25;13.05;;;2.10;99.90;;;;;;2101250;28;20025;-72
2024/01/15 01:05:55;;;;;;;24.67;13.18;;;2.10;99.90;;;;;;2097800;28;20075;-72
2024/01/15 01:06:56;;;;;;;22.13;12.45;;;2.10;99.90;;;;;;2097055;28;20408;-72
2024/01/15 01:07:56;;;;;;;23.48;12.52;;;2.10;99.90;;;;;;2096464;28;20029;-72
2024/01/15 01:08:57;;;;;;;19.67;11.90;;;2.10;99.90;;;;;;2103021;28;20045;-73
2024/01/15 01:09:58;;;;;;;20.60;12.02;;;2.10;99.90;;;;;;2101609;28;20093;-72
2024/01/15 01:10:58;;;;;;;21.33;12.35;;;2.10;99.90;;;;;;2098773;28;20024;-73
2024/01/15 01:11:59;;;;;;;23.48;12.50;;;2.20;99.90;;;;;;2097525;28;20028;-72
2024/01/15 01:12:59;;;;;;;20.08;11.57;;;2.10;99.90;;;;;;2100583;28;20575;-72
2024/01/15 01:14:01;;;;;;;20.92;12.23;;;2.10;99.90;;;;;;2097509;28;20097;-72
2024/01/15 01:15:02;;;;;;;20.95;12.13;;;2.20;99.90;;;;;;2100379;28;20048;-72
2024/01/15 01:16:03;;;;;;;20.02;11.57;;;2.20;99.90;;;;;;2093865;28;20643;-72
2024/01/15 01:17:04;;;;;;;20.40;12.00;;;2.10;99.90;;;;;;2093416;28;20675;-72
2024/01/15 01:18:04;;;;;;;22.23;12.70;;;2.10;99.90;;;;;;2100670;28;20079;-72
2024/01/15 01:19:06;;;;;;;20.75;12.18;;;2.10;99.90;;;;;;2101428;28;20162;-72
2024/01/15 01:20:09;;;;;;;20.90;11.88;;;2.10;99.90;;;;;;2105317;28;20065;-72
2024/01/15 01:21:09;;;;;;;22.23;12.98;;;2.10;99.90;;;;;;2093297;28;20051;-73
2024/01/15 01:22:10;;;;;;;22.35;12.68;;;2.10;99.90;;;;;;2104677;28;20032;-72
2024/01/15 01:23:10;;;;;;;23.00;13.10;;;2.10;99.90;;;;;;2102058;28;20031;-73
2024/01/15 01:24:11;;;;;;;21.27;12.30;;;2.00;99.90;;;;;;2102769;28;20040;-72
2024/01/15 01:25:11;;;;;;;24.27;13.15;;;2.00;99.90;;;;;;2097734;28;20036;-72
2024/01/15 01:26:16;;;;;;;24.70;13.25;;;2.00;99.90;;;;;;2103881;28;20028;-72
2024/01/15 01:27:16;;;;;;;22.30;12.98;;;2.00;99.90;;;;;;2100879;28;20053;-71
2024/01/15 01:28:17;;;;;;;23.17;12.88;;;2.00;99.90;;;;;;2093175;28;20378;-72
2024/01/15 01:29:17;;;;;;;25.55;13.48;;;2.00;99.90;;;;;;2103938;28;20543;-72
2024/01/15 01:30:18;;;;;;;23.60;13.27;;;2.00;99.90;;;;;;2097920;28;20029;-72
2024/01/15 01:31:18;;;;;;;22.42;12.88;;;2.00;99.90;;;;;;2092870;28;20029;-72
2024/01/15 01:32:19;;;;;;;23.77;13.35;;;2.00;99.90;;;;;;2087954;28;20043;-72
2024/01/15 01:33:20;;;;;;;25.30;13.68;;;2.00;99.90;;;;;;2093081;28;20271;-71
2024/01/15 01:34:20;;;;;;;25.00;13.75;;;2.00;99.90;;;;;;2094379;28;20039;-72
2024/01/15 01:35:22;;;;;;;25.60;13.80;;;2.00;99.90;;;;;;2099864;28;21177;-72
2024/01/15 01:36:22;;;;;;;24.80;13.30;;;2.00;99.90;;;;;;2101159;28;20041;-72
2024/01/15 01:37:23;;;;;;;23.23;13.10;;;2.00;99.90;;;;;;2095070;28;20027;-72
2024/01/15 01:38:23;;;;;;;24.98;13.68;;;1.90;99.90;;;;;;2099093;28;20095;-72
2024/01/15 01:39:24;;;;;;;23.13;13.43;;;2.00;99.90;;;;;;2093192;28;20024;-72
2024/01/15 01:40:24;;;;;;;27.05;14.05;;;1.90;99.90;;;;;;2093137;28;20028;-70
2024/01/15 01:41:25;;;;;;;26.10;13.73;;;2.00;99.90;;;;;;2097541;28;20031;-70
2024/01/15 01:42:26;;;;;;;23.40;13.23;;;1.90;99.90;;;;;;2103872;28;20031;-70
2024/01/15 01:43:26;;;;;;;25.30;13.73;;;1.90;99.90;;;;;;2092321;28;20031;-70
2024/01/15 01:44:27;;;;;;;25.15;13.82;;;1.90;99.90;;;;;;2085825;28;20021;-70
2024/01/15 01:45:27;;;;;;;25.85;14.07;;;1.90;99.90;;;;;;2098709;28;20023;-70
2024/01/15 01:46:28;;;;;;;25.70;13.95;;;1.90;99.90;;;;;;2101293;28;20027;-70
2024/01/15 01:47:29;;;;;;;28.00;14.57;;;2.00;99.90;;;;;;2094677;28;20035;-70
2024/01/15 01:48:31;;;;;;;25.77;13.48;;;2.00;99.90;;;;;;2098099;28;20424;-70
2024/01/15 01:49:32;;;;;;;24.65;13.90;;;2.00;99.90;;;;;;2100711;28;20026;-69
2024/01/15 01:50:33;;;;;;;25.40;14.20;;;2.00;99.90;;;;;;2099775;28;20103;-70
2024/01/15 01:51:35;;;;;;;26.17;14.40;;;2.00;99.90;;;;;;2092865;28;20442;-70
2024/01/15 01:52:36;;;;;;;26.45;14.52;;;2.00;99.90;;;;;;2097148;28;20036;-70
2024/01/15 01:53:38;;;;;;;25.23;13.85;;;1.90;99.90;;;;;;2097661;28;20063;-70
2024/01/15 01:54:40;;;;;;;26.02;14.50;;;1.90;99.90;;;;;;2095368;28;20138;-70
2024/01/15 01:55:40;;;;;;;26.55;14.65;;;1.90;99.90;;;;;;2092116;28;20705;-70
2024/01/15 01:56:42;;;;;;;28.40;14.75;;;2.00;99.90;;;;;;2089428;28;20032;-70
2024/01/15 01:57:43;;;;;;;27.40;15.02;;;1.90;99.90;;;;;;2094228;28;20074;-70
2024/01/15 01:58:44;;;;;;;26.00;13.80;;;2.00;99.90;;;;;;2096034;28;20468;-70
2024/01/15 01:59:46;;;;;;;26.70;14.13;;;1.90;99.90;;;;;;2092133;28;20615;-70
2024/01/15 02:00:47;;;;;;;25.15;14.02;;;1.90;99.90;;;;;;2095149;28;20064;-70
2024/01/15 02:01:49;;;;;;;26.73;14.27;;;1.90;99.90;;;;;;2092295;28;20143;-70
2024/01/15 02:02:50;;;;;;;27.77;15.10;;;1.90;99.90;;;;;;2092704;28;20028;-70
2024/01/15 02:03:50;;;;;;;25.10;13.95;;;1.90;99.90;;;;;;2100558;28;20519;-70
2024/01/15 02:04:51;;;;;;;25.85;14.13;;;1.90;99.90;;;;;;2099281;28;20527;-70
2024/01/15 02:05:52;;;;;;;25.80;14.38;;;1.90;99.90;;;;;;2093225;28;20034;-70
2024/01/15 02:06:53;;;;;;;25.60;13.77;;;1.90;99.90;;;;;;2092176;28;20106;-70
2024/01/15 02:07:54;;;;;;;24.42;13.13;;;1.90;99.90;;;;;;2085785;28;20130;-70
2024/01/15 02:08:55;;;;;;;24.60;13.65;;;1.90;99.90;;;;;;2096643;28;20090;-72
2024/01/15 02:09:56;;;;;;;25.98;13.75;;;1.90;99.90;;;;;;2092883;28;20128;-70
2024/01/15 02:10:56;;;;;;;25.42;13.70;;;2.00;99.90;;;;;;2092799;28;20036;-69
2024/01/15 02:11:57;;;;;;;25.35;13.90;;;2.00;99.90;;;;;;2092209;28;20574;-69
2024/01/15 02:12:58;;;;;;;23.05;13.02;;;2.00;99.90;;;;;;2092135;28;20055;-69
2024/01/15 02:13:58;;;;;;;24.85;13.65;;;2.00;99.90;;;;;;2107449;28;20140;-70
2024/01/15 02:14:59;;;;;;;26.73;14.15;;;2.00;99.90;;;;;;2093437;28;20024;-71
2024/01/15 02:15:59;;;;;;;26.42;14.10;;;1.90;99.90;;;;;;2099714;28;20690;-70
2024/01/15 02:17:00;;;;;;;27.75;14.43;;;2.00;99.90;;;;;;2101199;28;20027;-71
2024/01/15 02:18:03;;;;;;;28.27;14.38;;;1.90;99.90;;;;;;2096912;28;20032;-71
2024/01/15 02:19:03;;;;;;;25.52;13.80;;;1.90;99.90;;;;;;2097139;28;20025;-71
2024/01/15 02:20:05;;;;;;;26.83;13.95;;;1.90;99.90;;;;;;2103660;28;20034;-71
2024/01/15 02:21:05;;;;;;;25.17;14.10;;;1.90;99.90;;;;;;2092126;28;20029;-70
2024/01/15 02:22:06;;;;;;;25.73;14.20;;;1.90;99.90;;;;;;2092859;28;20457;-71
2024/01/15 02:23:07;;;;;;;26.08;14.05;;;2.00;99.90;;;;;;2093023;28;20580;-69
2024/01/15 02:24:07;;;;;;;23.88;12.98;;;2.00;99.90;;;;;;2092916;28;20035;-71
2024/01/15 02:25:08;;;;;;;26.95;14.43;;;2.00;99.90;;;;;;2093676;28;20052;-71
2024/01/15 02:26:09;;;;;;;26.98;14.60;;;2.00;99.90;;;;;;2100402;28;20020;-71
2024/01/15 02:27:09;;;;;;;25.52;13.80;;;1.90;99.90;;;;;;2087910;28;20521;-72
2024/01/15 02:28:12;;;;;;;25.50;13.88;;;1.90;99.90;;;;;;2083899;28;20025;-69
2024/01/15 02:29:13;;;;;;;28.15;14.43;;;1.90;99.90;;;;;;2091114;28;20028;-69
2024/01/15 02:30:15;;;;;;;25.15;13.63;;;1.90;99.90;;;;;;2083687;28;20029;-71
2024/01/15 02:31:15;;;;;;;27.63;14.35;;;1.90;99.90;;;;;;2099988;28;20074;-71
2024/01/15 02:32:16;;;;;;;27.00;14.02;;;1.90;99.90;;;;;;2092131;28;20024;-71
2024/01/15 02:33:16;;;;;;;26.55;14.13;;;1.90;99.90;;;;;;2096190;28;20665;-71
2024/01/15 02:34:17;;;;;;;25.83;14.68;;;1.90;99.90;;;;;;2092732;28;20093;-71
2024/01/15 02:35:18;;;;;;;25.95;14.50;;;1.90;99.90;;;;;;2092719;28;20029;-79
2024/01/15 02:36:18;;;;;;;25.10;14.13;;;1.90;99.90;;;;;;2092665;28;20028;-73
2024/01/15 02:37:20;;;;;;;26.73;14.52;;;1.90;99.90;;;;;;2094685;28;20527;-71
2024/01/15 02:38:20;;;;;;;28.90;14.95;;;1.80;99.90;;;;;;2102367;28;20038;-72
2024/01/15 02:39:21;;;;;;;26.55;14.48;;;1.80;99.90;;;;;;2098292;28;20025;-73
2024/01/15 02:40:22;;;;;;;27.63;15.00;;;1.90;99.90;;;;;;2095856;28;20040;-72
2024/01/15 02:41:22;;;;;;;28.58;15.05;;;1.90;99.90;;;;;;2094032;28;20021;-72
2024/01/15 02:42:23;;;;;;;26.67;15.00;;;1.80;99.90;;;;;;2100004;28;20024;-74
2024/01/15 02:43:23;;;;;;;28.58;14.70;;;1.80;99.90;;;;;;2096821;28;20039;-74
2024/01/15 02:44:24;;;;;;;28.95;14.80;;;1.80;99.90;;;;;;2094975;28;20468;-73
2024/01/15 02:45:25;;;;;;;27.05;14.95;;;1.80;99.90;;;;;;2099639;28;20036;-74
2024/01/15 02:46:25;;;;;;;28.50;14.93;;;1.80;99.90;;;;;;2097190;28;20037;-75
2024/01/15 02:47:26;;;;;;;27.17;14.60;;;1.80;99.90;;;;;;2095107;28;20526;-73
2024/01/15 02:48:26;;;;;;;26.05;14.48;;;1.80;99.90;;;;;;2100732;28;20028;-73
2024/01/15 02:49:27;;;;;;;28.27;14.25;;;1.80;99.90;;;;;;2098050;28;20037;-73
2024/01/15 02:50:27;;;;;;;29.48;15.73;;;1.80;99.90;;;;;;2094079;28;20046;-73
2024/01/15 02:51:28;;;;;;;28.08;14.93;;;1.80;99.90;;;;;;2092570;28;20028;-74
2024/01/15 02:52:28;;;;;;;27.42;15.02;;;1.80;99.90;;;;;;2092604;28;20020;-74
2024/01/15 02:53:29;;;;;;;28.83;15.20;;;1.80;99.90;;;;;;2092548;28;20028;-73
2024/01/15 02:54:29;;;;;;;28.58;15.38;;;1.80;99.90;;;;;;2092669;28;20085;-74
2024/01/15 02:55:30;;;;;;;29.17;15.63;;;1.80;99.90;;;;;;2091675;28;20348;-74
2024/01/15 02:56:30;;;;;;;27.48;15.07;;;1.80;99.90;;;;;;2102361;28;20071;-74
2024/01/15 02:57:31;;;;;;;27.95;15.02;;;1.80;99.90;;;;;;2097950;28;20028;-73
2024/01/15 02:58:31;;;;;;;30.27;15.50;;;1.70;99.90;;;;;;2101105;28;20102;-74
2024/01/15 02:59:32;;;;;;;30.00;15.07;;;1.70;99.90;;;;;;2095063;28;20025;-74
2024/01/15 03:00:32;;;;;;;28.27;15.18;;;1.70;99.90;;;;;;2099799;28;20624;-72
2024/01/15 03:01:33;;;;;;;27.85;15.20;;;1.70;99.90;;;;;;2091850;28;20052;-73
2024/01/15 03:02:39;;;;;;;29.70;15.25;;;1.70;99.90;;;;;;2092580;28;20034;-72
2024/01/15 03:03:40;;;;;;;27.85;15.82;;;1.70;99.90;;;;;;2091500;28;20066;-72
2024/01/15 03:04:44;;;;;;;29.70;15.65;;;1.70;99.90;;;;;;2091901;28;20102;-73
2024/01/15 03:05:44;;;;;;;30.67;15.63;;;1.70;99.90;;;;;;2100633;28;20039;-72
2024/01/15 03:06:45;;;;;;;27.67;14.93;;;1.70;99.90;;;;;;2094085;28;20033;-73
2024/01/15 03:07:46;;;;;;;28.05;15.65;;;1.70;99.90;;;;;;2099136;28;20040;-73
2024/01/15 03:08:46;;;;;;;28.60;15.63;;;1.70;99.90;;;;;;2092248;28;20032;-73
2024/01/15 03:09:47;;;;;;;28.55;15.45;;;1.70;99.90;;;;;;2098692;28;20084;-73
2024/01/15 03:10:47;;;;;;;28.95;15.00;;;1.70;99.90;;;;;;2098725;28;20086;-73
2024/01/15 03:11:48;;;;;;;29.20;15.40;;;1.70;99.90;;;;;;2097254;28;20101;-73
2024/01/15 03:12:49;;;;;;;29.05;16.02;;;1.70;99.90;;;;;;2100908;28;20514;-74
2024/01/15 03:13:49;;;;;;;28.77;15.02;;;1.70;99.90;;;;;;2100397;28;20032;-73
2024/01/15 03:14:50;;;;;;;27.80;14.98;;;1.70;99.90;;;;;;2100509;28;20028;-73
2024/01/15 03:15:50;;;;;;;28.73;15.00;;;1.70;99.90;;;;;;2103608;28;20459;-73
2024/01/15 03:16:51;;;;;;;29.33;15.57;;;1.70;99.90;;;;;;2104119;28;20034;-73
2024/01/15 03:17:51;;;;;;;29.30;15.70;;;1.60;99.90;;;;;;2100933;28;20591;-73
2024/01/15 03:18:52;;;;;;;30.10;15.82;;;1.70;99.90;;;;;;2098335;28;20555;-73
2024/01/15 03:19:52;;;;;;;29.27;15.63;;;1.70;99.90;;;;;;2099700;28;20686;-73
2024/01/15 03:20:53;;;;;;;30.17;16.02;;;1.70;99.90;;;;;;2083524;28;20029;-72
2024/01/15 03:21:54;;;;;;;30.90;16.73;;;1.70;99.90;;;;;;2098118;28;20032;-71
2024/01/15 03:22:55;;;;;;;32.00;16.80;;;1.70;99.90;;;;;;2101725;28;20023;-72
2024/01/15 03:23:55;;;;;;;29.40;16.02;;;1.70;99.90;;;;;;2091672;28;20098;-74
2024/01/15 03:24:56;;;;;;;30.15;15.95;;;1.60;99.90;;;;;;2091782;28;20379;-72
2024/01/15 03:25:57;;;;;;;28.95;15.50;;;1.60;99.90;;;;;;2100570;28;20019;-72
2024/01/15 03:26:57;;;;;;;31.48;16.80;;;1.60;99.90;;;;;;2092536;28;20028;-72
2024/01/15 03:27:58;;;;;;;29.38;16.35;;;1.70;99.90;;;;;;2092451;28;20087;-72
2024/01/15 03:28:58;;;;;;;30.05;16.30;;;1.60;99.90;;;;;;2092352;28;20036;-72
2024/01/15 03:29:59;;;;;;;30.85;16.73;;;1.60;99.90;;;;;;2091507;28;20055;-73
2024/01/15 03:30:59;;;;;;;28.45;15.57;;;1.60;99.90;;;;;;2091501;28;20020;-73
2024/01/15 03:32:00;;;;;;;33.17;17.02;;;1.60;99.90;;;;;;2099296;28;20066;-72
2024/01/15 03:33:00;;;;;;;30.35;16.48;;;1.60;99.90;;;;;;2092398;28;20028;-72
2024/01/15 03:34:01;;;;;;;32.35;17.30;;;1.60;99.90;;;;;;2091696;28;20186;-74
2024/01/15 03:35:01;;;;;;;32.55;16.70;;;1.60;99.90;;;;;;2091717;28;20094;-74
2024/01/15 03:36:02;;;;;;;30.52;16.58;;;1.50;99.90;;;;;;2097711;28;20355;-72
2024/01/15 03:37:03;;;;;;;33.65;17.40;;;1.60;99.90;;;;;;2099473;28;20036;-73
2024/01/15 03:38:04;;;;;;;32.00;17.45;;;1.60;99.90;;;;;;2096294;28;20056;-72
2024/01/15 03:39:04;;;;;;;31.60;16.42;;;1.60;99.90;;;;;;2083517;28;20051;-73
2024/01/15 03:40:05;;;;;;;32.33;17.58;;;1.60;99.90;;;;;;2083488;28;20074;-73
2024/01/15 03:41:06;;;;;;;31.30;17.10;;;1.60;99.90;;;;;;2093233;28;20099;-72
2024/01/15 03:42:06;;;;;;;33.97;16.50;;;1.60;99.90;;;;;;2101327;28;20043;-73
2024/01/15 03:43:07;;;;;;;33.90;17.10;;;1.60;99.90;;;;;;2089500;28;20021;-73
2024/01/15 03:44:07;;;;;;;31.92;17.20;;;1.60;99.90;;;;;;2095061;28;20052;-72
2024/01/15 03:45:08;;;;;;;31.30;16.90;;;1.60;99.90;;;;;;2079123;28;20029;-73
2024/01/15 03:46:09;;;;;;;32.95;16.75;;;1.60;99.90;;;;;;2093545;28;21071;-73
2024/01/15 03:47:09;;;;;;;34.25;17.02;;;1.50;99.90;;;;;;2105510;28;20512;-72
2024/01/15 03:48:10;;;;;;;33.10;17.15;;;1.50;99.90;;;;;;2096788;28;20032;-73
2024/01/15 03:49:10;;;;;;;31.50;17.05;;;1.50;99.90;;;;;;2095030;28;20028;-73
2024/01/15 03:50:11;;;;;;;34.28;17.33;;;1.50;99.90;;;;;;2095783;28;20035;-72
2024/01/15 03:51:11;;;;;;;34.83;17.63;;;1.50;99.90;;;;;;2097221;28;20036;-72
2024/01/15 03:52:12;;;;;;;33.55;17.40;;;1.50;99.90;;;;;;2103891;28;20035;-72
2024/01/15 03:53:12;;;;;;;31.48;16.95;;;1.50;99.90;;;;;;2096899;28;20021;-73
2024/01/15 03:54:13;;;;;;;33.33;17.48;;;1.50;99.90;;;;;;2102154;28;20032;-73
2024/01/15 03:55:13;;;;;;;34.63;17.45;;;1.50;99.90;;;;;;2101971;28;20020;-72
2024/01/15 03:56:14;;;;;;;34.72;17.83;;;1.40;99.90;;;;;;2096471;28;20084;-72
2024/01/15 03:57:14;;;;;;;34.20;17.95;;;1.50;99.90;;;;;;2093378;28;21049;-72
2024/01/15 03:58:15;;;;;;;32.63;17.05;;;1.40;99.90;;;;;;2088710;28;20029;-72
2024/01/15 03:59:16;;;;;;;32.13;16.83;;;1.40;99.90;;;;;;2099946;28;20027;-73
2024/01/15 04:00:17;;;;;;;34.35;17.70;;;1.40;99.90;;;;;;2096237;28;20028;-72
2024/01/15 04:01:17;;;;;;;32.63;17.35;;;1.40;99.90;;;;;;2093958;28;20029;-74
2024/01/15 04:02:18;;;;;;;31.10;17.42;;;1.40;99.90;;;;;;2093370;28;20028;-73
2024/01/15 04:03:19;;;;;;;35.95;17.63;;;1.40;99.90;;;;;;2088044;28;20055;-73
2024/01/15 04:04:19;;;;;;;33.08;17.67;;;1.30;99.90;;;;;;2081502;28;20040;-73
2024/01/15 04:05:20;;;;;;;31.60;17.00;;;1.30;99.90;;;;;;2093177;28;20036;-72
2024/01/15 04:06:20;;;;;;;35.35;18.10;;;1.30;99.90;;;;;;2101038;28;20070;-73
2024/01/15 04:07:21;;;;;;;31.48;17.05;;;1.30;99.90;;;;;;2091479;28;20024;-73
2024/01/15 04:08:21;;;;;;;31.15;16.85;;;1.30;99.90;;;;;;2100538;28;20015;-73
2024/01/15 04:09:22;;;;;;;34.15;17.85;;;1.30;99.90;;;;;;2101201;28;20019;-73
2024/01/15 04:10:23;;;;;;;33.25;17.35;;;1.30;99.90;;;;;;2098150;28;20107;-73
2024/01/15 04:11:23;;;;;;;36.03;17.65;;;1.30;99.90;;;;;;2094028;28;20024;-73
2024/01/15 04:12:24;;;;;;;31.23;16.85;;;1.20;99.90;;;;;;2102813;28;20079;-74
2024/01/15 04:13:24;;;;;;;32.60;17.40;;;1.30;99.90;;;;;;2102218;28;20028;-74
2024/01/15 04:14:25;;;;;;;30.70;17.40;;;1.30;99.90;;;;;;2104535;28;20080;-73
2024/01/15 04:15:26;;;;;;;34.55;17.33;;;1.20;99.90;;;;;;2094940;28;20020;-73
2024/01/15 04:16:26;;;;;;;34.60;17.40;;;1.30;99.90;;;;;;2101134;28;20032;-74
2024/01/15 04:17:27;;;;;;;31.05;16.83;;;1.30;99.90;;;;;;2099388;28;20023;-73
2024/01/15 04:18:27;;;;;;;32.53;16.75;;;1.30;99.90;;;;;;2101976;28;20050;-73
2024/01/15 04:19:28;;;;;;;30.00;16.55;;;1.30;99.90;;;;;;2101012;28;20033;-73
2024/01/15 04:20:29;;;;;;;33.30;16.45;;;1.30;99.90;;;;;;2100345;28;20811;-73
2024/01/15 04:21:30;;;;;;;33.75;17.17;;;1.20;99.90;;;;;;2092942;28;20090;-74
2024/01/15 04:22:30;;;;;;;32.60;17.35;;;1.20;99.90;;;;;;2100971;28;20028;-73
2024/01/15 04:23:31;;;;;;;33.00;17.60;;;1.20;99.90;;;;;;2093705;28;20033;-74
2024/01/15 04:24:32;;;;;;;32.03;16.67;;;1.20;99.90;;;;;;2093107;28;20028;-73
2024/01/15 04:25:32;;;;;;;29.63;16.20;;;1.30;99.90;;;;;;2099467;28;20686;-73
2024/01/15 04:26:33;;;;;;;31.40;16.63;;;1.20;99.90;;;;;;2093477;28;20025;-74
2024/01/15 04:27:33;;;;;;;28.38;15.77;;;1.30;99.90;;;;;;2103324;28;20389;-74
2024/01/15 04:28:34;;;;;;;30.58;15.88;;;1.30;99.90;;;;;;2093861;28;20031;-72
2024/01/15 04:29:37;;;;;;;30.98;16.15;;;1.30;99.90;;;;;;2093419;28;20036;-71
2024/01/15 04:30:38;;;;;;;31.65;16.50;;;1.30;99.90;;;;;;2092643;28;20102;-71
2024/01/15 04:31:39;;;;;;;33.50;16.20;;;1.30;99.90;;;;;;2091303;28;20111;-72
2024/01/15 04:32:39;;;;;;;35.03;17.92;;;1.30;99.90;;;;;;2100773;28;20106;-72
2024/01/15 04:33:40;;;;;;;29.95;15.93;;;1.30;99.90;;;;;;2104403;28;20052;-72
2024/01/15 04:34:40;;;;;;;30.73;16.27;;;1.30;99.90;;;;;;2085912;28;20032;-72
2024/01/15 04:35:41;;;;;;;34.70;16.60;;;1.30;99.90;;;;;;2100535;28;20034;-72
2024/01/15 04:36:41;;;;;;;33.28;16.98;;;1.30;99.90;;;;;;2104829;28;20051;-72
2024/01/15 04:37:42;;;;;;;30.00;16.63;;;1.30;99.90;;;;;;2095485;28;20039;-72
2024/01/15 04:38:43;;;;;;;32.10;16.08;;;1.30;99.90;;;;;;2099495;28;20033;-72
2024/01/15 04:39:43;;;;;;;30.45;15.52;;;1.30;99.90;;;;;;2101824;28;20047;-72
2024/01/15 04:40:44;;;;;;;31.52;15.90;;;1.30;99.90;;;;;;2093533;28;20033;-74
2024/01/15 04:41:44;;;;;;;30.08;16.38;;;1.30;99.90;;;;;;2085811;28;20657;-72
2024/01/15 04:42:48;;;;;;;30.52;15.88;;;1.20;99.90;;;;;;2089830;28;20039;-73
2024/01/15 04:43:49;;;;;;;32.83;15.90;;;1.30;99.90;;;;;;2101597;28;20407;-72
2024/01/15 04:44:49;;;;;;;29.48;15.63;;;1.30;99.90;;;;;;2097503;28;20063;-72
2024/01/15 04:45:50;;;;;;;29.80;15.63;;;1.30;99.90;;;;;;2100025;28;20024;-73
2024/01/15 04:46:50;;;;;;;35.70;16.52;;;1.20;99.90;;;;;;2098945;28;20032;-72
2024/01/15 04:47:51;;;;;;;32.08;16.42;;;1.20;99.90;;;;;;2101580;28;20031;-71
2024/01/15 04:48:52;;;;;;;29.08;15.88;;;1.20;99.90;;;;;;2095944;28;20043;-72
2024/01/15 04:49:52;;;;;;;29.55;15.70;;;1.20;99.90;;;;;;2098402;28;20053;-72
2024/01/15 04:50:53;;;;;;;29.08;15.32;;;1.20;99.90;;;;;;2101296;28;20069;-72
2024/01/15 04:51:53;;;;;;;30.40;16.05;;;1.20;99.90;;;;;;2096438;28;20078;-72
2024/01/15 04:52:54;;;;;;;32.20;16.25;;;1.20;99.90;;;;;;2103603;28;20040;-72
2024/01/15 04:53:54;;;;;;;32.38;16.77;;;1.10;99.90;;;;;;2103673;28;20024;-72
2024/01/15 04:54:55;;;;;;;32.58;16.73;;;1.10;99.90;;;;;;2096148;28;20058;-72
2024/01/15 04:55:55;;;;;;;29.85;15.73;;;1.10;99.90;;;;;;2097194;28;20074;-73
2024/01/15 04:56:56;;;;;;;31.92;16.88;;;1.10;99.90;;;;;;2100687;28;20093;-73
2024/01/15 04:57:56;;;;;;;32.17;16.67;;;1.10;99.90;;;;;;2097666;28;20024;-74
2024/01/15 04:58:57;;;;;;;32.35;16.90;;;1.10;99.90;;;;;;2096961;28;20075;-73
2024/01/15 04:59:57;;;;;;;31.80;16.20;;;1.10;99.90;;;;;;2101414;28;20544;-73
2024/01/15 05:00:58;;;;;;;32.83;16.50;;;1.00;99.90;;;;;;2097882;28;20054;-73
2024/01/15 05:01:58;;;;;;;33.63;17.50;;;1.00;99.90;;;;;;2096446;28;20444;-73
2024/01/15 05:02:59;;;;;;;31.27;16.02;;;1.00;99.90;;;;;;2093358;28;20090;-74
2024/01/15 05:03:59;;;;;;;32.05;16.50;;;0.90;99.90;;;;;;2098452;28;20570;-73
2024/01/15 05:05:00;;;;;;;31.83;16.35;;;0.90;99.90;;;;;;2101356;28;20032;-74
2024/01/15 05:06:00;;;;;;;31.88;16.17;;;0.90;99.90;;;;;;2097380;28;20036;-73
2024/01/15 05:07:01;;;;;;;30.98;15.75;;;0.90;99.90;;;;;;2099200;28;20436;-73
2024/01/15 05:08:01;;;;;;;31.92;16.20;;;0.90;99.90;;;;;;2099603;28;20032;-73
2024/01/15 05:09:03;;;;;;;31.65;16.17;;;0.90;99.90;;;;;;2097071;28;20045;-74
2024/01/15 05:10:04;;;;;;;31.90;15.82;;;0.90;99.90;;;;;;2101242;28;20481;-73
2024/01/15 05:11:05;;;;;;;30.70;15.98;;;0.90;99.90;;;;;;2095991;28;20024;-75